sensor_id;sensor_type;location;lat;lon;timestamp;temperature;humidity
19359;DHT22;9815;52.334;20.890;2022-11-04T00:02:10;6.70;99.90
19359;DHT22;9815;52.334;20.890;2022-11-04T00:04:38;6.80;99.90
19359;DHT22;9815;52.334;20.890;2022-11-04T00:07:06;6.80;99.90
19359;DHT22;9815;52.334;20.890;2022-11-04T00:09:54;6.80;99.90
19359;DHT22;9815;52.334;20.890;2022-11-04T00:12:22;6.70;99.90
19359;DHT22;9815;52.334;20.890;2022-11-04T00:14:53;6.70;99.90
19359;DHT22;9815;52.334;20.890;2022-11-04T00:17:41;6.80;99.90
19359;DHT22;9815;52.334;20.890;2022-11-04T00:20:08;6.80;99.90
19359;DHT22;9815;52.334;20.890;2022-11-04T00:22:54;6.80;99.90
19359;DHT22;9815;52.334;20.890;2022-11-04T00:25:42;6.80;99.90
19359;DHT22;9815;52.334;20.890;2022-11-04T00:28:27;6.90;99.90
19359;DHT22;9815;52.334;20.890;2022-11-04T00:31:13;6.80;99.90
19359;DHT22;9815;52.334;20.890;2022-11-04T00:33:58;6.80;99.90
19359;DHT22;9815;52.334;20.890;2022-11-04T00:36:26;6.80;99.90
19359;DHT22;9815;52.334;20.890;2022-11-04T00:38:54;6.80;99.90
19359;DHT22;9815;52.334;20.890;2022-11-04T00:41:22;6.80;99.90
19359;DHT22;9815;52.334;20.890;2022-11-04T00:43:55;6.90;99.90
19359;DHT22;9815;52.334;20.890;2022-11-04T00:46:26;6.90;99.90
19359;DHT22;9815;52.334;20.890;2022-11-04T00:48:54;7.00;99.90
19359;DHT22;9815;52.334;20.890;2022-11-04T00:51:23;7.00;99.90
19359;DHT22;9815;52.334;20.890;2022-11-04T00:53:51;7.00;99.90
19359;DHT22;9815;52.334;20.890;2022-11-04T00:56:19;7.00;99.90
19359;DHT22;9815;52.334;20.890;2022-11-04T00:58:47;7.00;99.90
19359;DHT22;9815;52.334;20.890;2022-11-04T01:01:17;6.90;99.90
19359;DHT22;9815;52.334;20.890;2022-11-04T01:03:48;7.00;99.90
19359;DHT22;9815;52.334;20.890;2022-11-04T01:06:18;6.90;99.90
19359;DHT22;9815;52.334;20.890;2022-11-04T01:08:47;6.90;99.90
19359;DHT22;9815;52.334;20.890;2022-11-04T01:11:15;6.90;99.90
19359;DHT22;9815;52.334;20.890;2022-11-04T01:13:43;6.80;99.90
19359;DHT22;9815;52.334;20.890;2022-11-04T01:16:12;6.90;99.90
19359;DHT22;9815;52.334;20.890;2022-11-04T01:18:40;6.80;99.90
19359;DHT22;9815;52.334;20.890;2022-11-04T01:21:11;6.90;99.90
19359;DHT22;9815;52.334;20.890;2022-11-04T01:23:41;6.90;99.90
19359;DHT22;9815;52.334;20.890;2022-11-04T01:26:12;6.90;99.90
19359;DHT22;9815;52.334;20.890;2022-11-04T01:28:40;7.00;99.90
19359;DHT22;9815;52.334;20.890;2022-11-04T01:31:10;6.90;99.90
19359;DHT22;9815;52.334;20.890;2022-11-04T01:33:39;6.90;99.90
19359;DHT22;9815;52.334;20.890;2022-11-04T01:36:09;6.90;99.90
19359;DHT22;9815;52.334;20.890;2022-11-04T01:38:38;6.90;99.90
19359;DHT22;9815;52.334;20.890;2022-11-04T01:41:06;7.00;99.90
19359;DHT22;9815;52.334;20.890;2022-11-04T01:43:43;7.10;99.90
19359;DHT22;9815;52.334;20.890;2022-11-04T01:46:19;7.20;99.90
19359;DHT22;9815;52.334;20.890;2022-11-04T01:48:48;7.20;99.90
19359;DHT22;9815;52.334;20.890;2022-11-04T01:51:18;7.30;99.90
19359;DHT22;9815;52.334;20.890;2022-11-04T01:53:49;7.30;99.90
19359;DHT22;9815;52.334;20.890;2022-11-04T01:56:17;7.30;99.90
19359;DHT22;9815;52.334;20.890;2022-11-04T01:58:48;7.30;99.90
19359;DHT22;9815;52.334;20.890;2022-11-04T02:01:17;7.40;99.90
19359;DHT22;9815;52.334;20.890;2022-11-04T02:03:48;7.30;99.90
19359;DHT22;9815;52.334;20.890;2022-11-04T02:06:20;7.30;99.90
19359;DHT22;9815;52.334;20.890;2022-11-04T02:08:49;7.30;99.90
19359;DHT22;9815;52.334;20.890;2022-11-04T02:11:17;7.40;99.90
19359;DHT22;9815;52.334;20.890;2022-11-04T02:14:00;7.40;99.90
19359;DHT22;9815;52.334;20.890;2022-11-04T02:16:34;7.40;99.90
19359;DHT22;9815;52.334;20.890;2022-11-04T02:19:15;7.40;99.90
19359;DHT22;9815;52.334;20.890;2022-11-04T02:22:12;7.30;99.90
19359;DHT22;9815;52.334;20.890;2022-11-04T02:25:03;7.40;99.90
19359;DHT22;9815;52.334;20.890;2022-11-04T02:27:47;7.40;99.90
19359;DHT22;9815;52.334;20.890;2022-11-04T02:30:18;7.40;99.90
19359;DHT22;9815;52.334;20.890;2022-11-04T02:33:04;7.50;99.90
19359;DHT22;9815;52.334;20.890;2022-11-04T02:35:44;7.50;99.90
19359;DHT22;9815;52.334;20.890;2022-11-04T02:38:25;7.50;99.90
19359;DHT22;9815;52.334;20.890;2022-11-04T02:41:01;7.60;99.90
19359;DHT22;9815;52.334;20.890;2022-11-04T02:43:34;7.60;99.90
19359;DHT22;9815;52.334;20.890;2022-11-04T02:46:12;7.60;99.90
19359;DHT22;9815;52.334;20.890;2022-11-04T02:48:46;7.60;99.90
19359;DHT22;9815;52.334;20.890;2022-11-04T02:51:18;7.60;99.90
19359;DHT22;9815;52.334;20.890;2022-11-04T02:53:53;7.50;99.90
19359;DHT22;9815;52.334;20.890;2022-11-04T02:56:26;7.60;99.90
19359;DHT22;9815;52.334;20.890;2022-11-04T02:58:57;7.60;99.90
19359;DHT22;9815;52.334;20.890;2022-11-04T03:01:33;7.60;99.90
19359;DHT22;9815;52.334;20.890;2022-11-04T03:04:06;7.60;99.90
19359;DHT22;9815;52.334;20.890;2022-11-04T03:06:36;7.60;99.90
19359;DHT22;9815;52.334;20.890;2022-11-04T03:09:05;7.60;99.90
19359;DHT22;9815;52.334;20.890;2022-11-04T03:11:35;7.60;99.90
19359;DHT22;9815;52.334;20.890;2022-11-04T03:14:08;7.60;99.90
19359;DHT22;9815;52.334;20.890;2022-11-04T03:16:41;7.70;99.90
19359;DHT22;9815;52.334;20.890;2022-11-04T03:19:15;7.70;99.90
19359;DHT22;9815;52.334;20.890;2022-11-04T03:21:49;7.70;99.90
19359;DHT22;9815;52.334;20.890;2022-11-04T03:24:20;7.70;99.90
19359;DHT22;9815;52.334;20.890;2022-11-04T03:26:51;7.70;99.90
19359;DHT22;9815;52.334;20.890;2022-11-04T03:29:24;7.70;99.90
19359;DHT22;9815;52.334;20.890;2022-11-04T03:32:01;7.60;99.90
19359;DHT22;9815;52.334;20.890;2022-11-04T03:34:30;7.60;99.90
19359;DHT22;9815;52.334;20.890;2022-11-04T03:36:58;7.60;99.90
19359;DHT22;9815;52.334;20.890;2022-11-04T03:39:26;7.60;99.90
19359;DHT22;9815;52.334;20.890;2022-11-04T03:41:56;7.50;99.90
19359;DHT22;9815;52.334;20.890;2022-11-04T03:44:25;7.60;99.90
19359;DHT22;9815;52.334;20.890;2022-11-04T03:46:53;7.60;99.90
19359;DHT22;9815;52.334;20.890;2022-11-04T03:49:23;7.60;99.90
19359;DHT22;9815;52.334;20.890;2022-11-04T03:51:51;7.70;99.90
19359;DHT22;9815;52.334;20.890;2022-11-04T03:54:20;7.70;99.90
19359;DHT22;9815;52.334;20.890;2022-11-04T03:56:59;7.70;99.90
19359;DHT22;9815;52.334;20.890;2022-11-04T03:59:44;7.70;99.90
19359;DHT22;9815;52.334;20.890;2022-11-04T04:02:19;7.70;99.90
19359;DHT22;9815;52.334;20.890;2022-11-04T04:04:55;7.70;99.90
19359;DHT22;9815;52.334;20.890;2022-11-04T04:07:30;7.70;99.90
19359;DHT22;9815;52.334;20.890;2022-11-04T04:10:04;7.70;99.90
19359;DHT22;9815;52.334;20.890;2022-11-04T04:12:57;7.70;99.90
19359;DHT22;9815;52.334;20.890;2022-11-04T04:15:29;7.70;99.90
19359;DHT22;9815;52.334;20.890;2022-11-04T04:18:01;7.70;99.90
19359;DHT22;9815;52.334;20.890;2022-11-04T04:20:33;7.80;99.90
19359;DHT22;9815;52.334;20.890;2022-11-04T04:23:04;7.80;99.90
19359;DHT22;9815;52.334;20.890;2022-11-04T04:25:56;7.70;99.90
19359;DHT22;9815;52.334;20.890;2022-11-04T04:28:45;7.80;99.90
19359;DHT22;9815;52.334;20.890;2022-11-04T04:31:14;7.80;99.90
19359;DHT22;9815;52.334;20.890;2022-11-04T04:34:04;7.80;99.90
19359;DHT22;9815;52.334;20.890;2022-11-04T04:36:40;7.90;99.90
19359;DHT22;9815;52.334;20.890;2022-11-04T04:39:13;7.90;99.90
19359;DHT22;9815;52.334;20.890;2022-11-04T04:42:01;7.90;99.90
19359;DHT22;9815;52.334;20.890;2022-11-04T04:44:47;7.90;99.90
19359;DHT22;9815;52.334;20.890;2022-11-04T04:47:34;7.90;99.90
19359;DHT22;9815;52.334;20.890;2022-11-04T04:50:04;7.80;99.90
19359;DHT22;9815;52.334;20.890;2022-11-04T04:52:37;7.90;99.90
19359;DHT22;9815;52.334;20.890;2022-11-04T04:55:07;8.00;99.90
19359;DHT22;9815;52.334;20.890;2022-11-04T04:57:35;7.90;99.90
19359;DHT22;9815;52.334;20.890;2022-11-04T05:00:05;7.90;99.90
19359;DHT22;9815;52.334;20.890;2022-11-04T05:02:34;8.00;99.90
19359;DHT22;9815;52.334;20.890;2022-11-04T05:05:02;8.00;99.90
19359;DHT22;9815;52.334;20.890;2022-11-04T05:07:31;7.90;99.90
19359;DHT22;9815;52.334;20.890;2022-11-04T05:10:00;7.90;99.90
19359;DHT22;9815;52.334;20.890;2022-11-04T05:12:28;7.90;99.90
19359;DHT22;9815;52.334;20.890;2022-11-04T05:15:16;8.00;99.90
19359;DHT22;9815;52.334;20.890;2022-11-04T05:17:44;8.00;99.90
19359;DHT22;9815;52.334;20.890;2022-11-04T05:20:13;8.00;99.90
19359;DHT22;9815;52.334;20.890;2022-11-04T05:22:41;7.90;99.90
19359;DHT22;9815;52.334;20.890;2022-11-04T05:25:10;7.90;99.90
19359;DHT22;9815;52.334;20.890;2022-11-04T05:27:38;7.90;99.90
19359;DHT22;9815;52.334;20.890;2022-11-04T05:30:07;7.90;99.90
19359;DHT22;9815;52.334;20.890;2022-11-04T05:32:35;7.90;99.90
19359;DHT22;9815;52.334;20.890;2022-11-04T05:35:03;7.90;99.90
19359;DHT22;9815;52.334;20.890;2022-11-04T05:37:31;7.90;99.90
19359;DHT22;9815;52.334;20.890;2022-11-04T05:39:59;7.90;99.90
19359;DHT22;9815;52.334;20.890;2022-11-04T05:42:30;7.90;99.90
19359;DHT22;9815;52.334;20.890;2022-11-04T05:44:58;7.90;99.90
19359;DHT22;9815;52.334;20.890;2022-11-04T05:47:26;7.90;99.90
19359;DHT22;9815;52.334;20.890;2022-11-04T05:49:54;7.90;99.90
19359;DHT22;9815;52.334;20.890;2022-11-04T05:52:22;7.90;99.90
19359;DHT22;9815;52.334;20.890;2022-11-04T05:54:50;7.90;99.90
19359;DHT22;9815;52.334;20.890;2022-11-04T05:57:18;8.00;99.90
19359;DHT22;9815;52.334;20.890;2022-11-04T05:59:47;8.00;99.90
19359;DHT22;9815;52.334;20.890;2022-11-04T06:02:15;8.00;99.90
19359;DHT22;9815;52.334;20.890;2022-11-04T06:04:43;8.00;99.90
19359;DHT22;9815;52.334;20.890;2022-11-04T06:07:11;8.00;99.90
19359;DHT22;9815;52.334;20.890;2022-11-04T06:09:39;8.00;99.90
19359;DHT22;9815;52.334;20.890;2022-11-04T06:12:08;8.10;99.90
19359;DHT22;9815;52.334;20.890;2022-11-04T06:14:37;8.10;99.90
19359;DHT22;9815;52.334;20.890;2022-11-04T06:17:06;8.10;99.90
19359;DHT22;9815;52.334;20.890;2022-11-04T06:19:35;8.20;99.90
19359;DHT22;9815;52.334;20.890;2022-11-04T06:22:03;8.20;99.90
19359;DHT22;9815;52.334;20.890;2022-11-04T06:24:32;8.20;99.90
19359;DHT22;9815;52.334;20.890;2022-11-04T06:26:59;8.20;99.90
19359;DHT22;9815;52.334;20.890;2022-11-04T06:29:28;8.20;99.90
19359;DHT22;9815;52.334;20.890;2022-11-04T06:31:56;8.20;99.90
19359;DHT22;9815;52.334;20.890;2022-11-04T06:34:25;8.20;99.90
19359;DHT22;9815;52.334;20.890;2022-11-04T06:36:53;8.20;99.90
19359;DHT22;9815;52.334;20.890;2022-11-04T06:39:21;8.30;99.90
19359;DHT22;9815;52.334;20.890;2022-11-04T06:41:49;8.30;99.90
19359;DHT22;9815;52.334;20.890;2022-11-04T06:44:18;8.30;99.90
19359;DHT22;9815;52.334;20.890;2022-11-04T06:46:46;8.40;99.90
19359;DHT22;9815;52.334;20.890;2022-11-04T06:49:16;8.40;99.90
19359;DHT22;9815;52.334;20.890;2022-11-04T06:51:47;8.50;99.90
19359;DHT22;9815;52.334;20.890;2022-11-04T06:54:16;8.50;99.90
19359;DHT22;9815;52.334;20.890;2022-11-04T06:56:44;8.60;99.90
19359;DHT22;9815;52.334;20.890;2022-11-04T06:59:14;8.70;99.90
19359;DHT22;9815;52.334;20.890;2022-11-04T07:01:43;8.70;99.90
19359;DHT22;9815;52.334;20.890;2022-11-04T07:04:11;8.60;99.90
19359;DHT22;9815;52.334;20.890;2022-11-04T07:06:41;8.60;99.90
19359;DHT22;9815;52.334;20.890;2022-11-04T07:09:13;8.70;99.90
19359;DHT22;9815;52.334;20.890;2022-11-04T07:11:42;8.70;99.90
19359;DHT22;9815;52.334;20.890;2022-11-04T07:14:11;8.70;99.90
19359;DHT22;9815;52.334;20.890;2022-11-04T07:16:39;8.70;99.90
19359;DHT22;9815;52.334;20.890;2022-11-04T07:19:07;8.70;99.90
19359;DHT22;9815;52.334;20.890;2022-11-04T07:21:35;8.70;99.90
19359;DHT22;9815;52.334;20.890;2022-11-04T07:24:04;8.80;99.90
19359;DHT22;9815;52.334;20.890;2022-11-04T07:26:34;8.70;99.90
19359;DHT22;9815;52.334;20.890;2022-11-04T07:29:02;8.80;99.90
19359;DHT22;9815;52.334;20.890;2022-11-04T07:31:32;8.90;99.90
19359;DHT22;9815;52.334;20.890;2022-11-04T07:34:00;8.90;99.90
19359;DHT22;9815;52.334;20.890;2022-11-04T07:36:29;8.90;99.90
19359;DHT22;9815;52.334;20.890;2022-11-04T07:38:57;8.80;99.90
19359;DHT22;9815;52.334;20.890;2022-11-04T07:41:25;8.80;99.90
19359;DHT22;9815;52.334;20.890;2022-11-04T07:43:54;8.90;99.90
19359;DHT22;9815;52.334;20.890;2022-11-04T07:46:24;8.90;99.90
19359;DHT22;9815;52.334;20.890;2022-11-04T07:48:55;8.90;99.90
19359;DHT22;9815;52.334;20.890;2022-11-04T07:51:24;9.00;99.90
19359;DHT22;9815;52.334;20.890;2022-11-04T07:53:54;9.10;99.90
19359;DHT22;9815;52.334;20.890;2022-11-04T07:56:22;9.20;99.90
19359;DHT22;9815;52.334;20.890;2022-11-04T07:58:50;9.10;99.90
19359;DHT22;9815;52.334;20.890;2022-11-04T08:01:22;9.20;99.90
19359;DHT22;9815;52.334;20.890;2022-11-04T08:03:50;9.20;99.90
19359;DHT22;9815;52.334;20.890;2022-11-04T08:06:20;9.30;99.90
19359;DHT22;9815;52.334;20.890;2022-11-04T08:08:49;9.20;99.90
19359;DHT22;9815;52.334;20.890;2022-11-04T08:11:22;9.30;99.90
19359;DHT22;9815;52.334;20.890;2022-11-04T08:13:54;9.30;99.90
19359;DHT22;9815;52.334;20.890;2022-11-04T08:16:24;9.30;99.90
19359;DHT22;9815;52.334;20.890;2022-11-04T08:19:00;9.30;99.90
19359;DHT22;9815;52.334;20.890;2022-11-04T08:21:29;9.40;99.90
19359;DHT22;9815;52.334;20.890;2022-11-04T08:23:58;9.40;99.90
19359;DHT22;9815;52.334;20.890;2022-11-04T08:26:28;9.40;99.90
19359;DHT22;9815;52.334;20.890;2022-11-04T08:28:57;9.40;99.90
19359;DHT22;9815;52.334;20.890;2022-11-04T08:31:30;9.40;99.90
19359;DHT22;9815;52.334;20.890;2022-11-04T08:33:59;9.40;99.90
19359;DHT22;9815;52.334;20.890;2022-11-04T08:36:30;9.40;99.90
19359;DHT22;9815;52.334;20.890;2022-11-04T08:38:59;9.40;99.90
19359;DHT22;9815;52.334;20.890;2022-11-04T08:41:36;9.40;99.90
19359;DHT22;9815;52.334;20.890;2022-11-04T08:44:04;9.40;99.90
19359;DHT22;9815;52.334;20.890;2022-11-04T08:46:36;9.40;99.90
19359;DHT22;9815;52.334;20.890;2022-11-04T08:49:05;9.40;99.90
19359;DHT22;9815;52.334;20.890;2022-11-04T08:51:39;9.30;99.90
19359;DHT22;9815;52.334;20.890;2022-11-04T08:54:07;9.30;99.90
19359;DHT22;9815;52.334;20.890;2022-11-04T08:56:37;9.30;99.90
19359;DHT22;9815;52.334;20.890;2022-11-04T08:59:05;9.40;99.90
19359;DHT22;9815;52.334;20.890;2022-11-04T09:01:36;9.50;99.90
19359;DHT22;9815;52.334;20.890;2022-11-04T09:04:06;9.50;99.90
19359;DHT22;9815;52.334;20.890;2022-11-04T09:06:37;9.50;99.90
19359;DHT22;9815;52.334;20.890;2022-11-04T09:09:07;9.50;99.90
19359;DHT22;9815;52.334;20.890;2022-11-04T09:11:37;9.60;99.90
19359;DHT22;9815;52.334;20.890;2022-11-04T09:14:08;9.60;99.90
19359;DHT22;9815;52.334;20.890;2022-11-04T09:16:39;9.50;99.90
19359;DHT22;9815;52.334;20.890;2022-11-04T09:19:08;9.60;99.90
19359;DHT22;9815;52.334;20.890;2022-11-04T09:21:36;9.70;99.90
19359;DHT22;9815;52.334;20.890;2022-11-04T09:24:04;9.70;99.90
19359;DHT22;9815;52.334;20.890;2022-11-04T09:26:33;9.70;99.90
19359;DHT22;9815;52.334;20.890;2022-11-04T09:29:02;9.60;99.90
19359;DHT22;9815;52.334;20.890;2022-11-04T09:31:30;9.70;99.90
19359;DHT22;9815;52.334;20.890;2022-11-04T09:33:59;9.70;99.90
19359;DHT22;9815;52.334;20.890;2022-11-04T09:36:27;9.70;99.90
19359;DHT22;9815;52.334;20.890;2022-11-04T09:38:57;9.80;99.90
19359;DHT22;9815;52.334;20.890;2022-11-04T09:44:25;9.90;99.90
19359;DHT22;9815;52.334;20.890;2022-11-04T09:46:57;10.00;99.90
19359;DHT22;9815;52.334;20.890;2022-11-04T09:49:31;10.00;99.90
19359;DHT22;9815;52.334;20.890;2022-11-04T09:52:02;10.00;99.90
19359;DHT22;9815;52.334;20.890;2022-11-04T09:54:35;10.00;99.90
19359;DHT22;9815;52.334;20.890;2022-11-04T09:57:15;10.00;99.90
19359;DHT22;9815;52.334;20.890;2022-11-04T09:59:45;10.10;99.90
19359;DHT22;9815;52.334;20.890;2022-11-04T10:05:33;10.10;99.90
19359;DHT22;9815;52.334;20.890;2022-11-04T10:08:28;10.20;99.90
19359;DHT22;9815;52.334;20.890;2022-11-04T10:11:07;10.30;99.90
19359;DHT22;9815;52.334;20.890;2022-11-04T10:13:49;10.50;99.80
19359;DHT22;9815;52.334;20.890;2022-11-04T10:16:31;10.60;99.70
19359;DHT22;9815;52.334;20.890;2022-11-04T10:19:14;10.80;98.40
19359;DHT22;9815;52.334;20.890;2022-11-04T10:21:57;11.00;96.80
19359;DHT22;9815;52.334;20.890;2022-11-04T10:24:38;11.20;96.00
19359;DHT22;9815;52.334;20.890;2022-11-04T10:27:14;11.30;94.70
19359;DHT22;9815;52.334;20.890;2022-11-04T10:29:44;11.30;94.90
19359;DHT22;9815;52.334;20.890;2022-11-04T10:32:17;11.30;95.80
19359;DHT22;9815;52.334;20.890;2022-11-04T10:34:53;11.30;95.60
19359;DHT22;9815;52.334;20.890;2022-11-04T10:37:25;11.40;95.00
19359;DHT22;9815;52.334;20.890;2022-11-04T10:39:59;11.40;94.70
19359;DHT22;9815;52.334;20.890;2022-11-04T10:42:28;11.40;95.60
19359;DHT22;9815;52.334;20.890;2022-11-04T10:44:56;11.40;95.20
19359;DHT22;9815;52.334;20.890;2022-11-04T10:47:33;11.30;94.70
19359;DHT22;9815;52.334;20.890;2022-11-04T10:50:19;11.40;95.10
19359;DHT22;9815;52.334;20.890;2022-11-04T10:53:15;11.80;93.80
19359;DHT22;9815;52.334;20.890;2022-11-04T10:55:50;12.00;92.90
19359;DHT22;9815;52.334;20.890;2022-11-04T10:58:23;12.10;92.60
19359;DHT22;9815;52.334;20.890;2022-11-04T11:00:53;12.10;92.40
19359;DHT22;9815;52.334;20.890;2022-11-04T11:03:26;12.10;92.10
19359;DHT22;9815;52.334;20.890;2022-11-04T11:06:11;12.00;92.20
19359;DHT22;9815;52.334;20.890;2022-11-04T11:08:43;12.00;92.80
19359;DHT22;9815;52.334;20.890;2022-11-04T11:11:12;12.10;92.70
19359;DHT22;9815;52.334;20.890;2022-11-04T11:13:42;12.20;93.10
19359;DHT22;9815;52.334;20.890;2022-11-04T11:16:12;12.80;93.00
19359;DHT22;9815;52.334;20.890;2022-11-04T11:18:44;13.40;88.90
19359;DHT22;9815;52.334;20.890;2022-11-04T11:21:13;13.60;85.50
19359;DHT22;9815;52.334;20.890;2022-11-04T11:23:48;14.10;78.30
19359;DHT22;9815;52.334;20.890;2022-11-04T11:26:19;14.00;79.30
19359;DHT22;9815;52.334;20.890;2022-11-04T11:28:49;13.90;80.40
19359;DHT22;9815;52.334;20.890;2022-11-04T11:31:24;13.90;78.70
19359;DHT22;9815;52.334;20.890;2022-11-04T11:33:55;13.90;79.50
19359;DHT22;9815;52.334;20.890;2022-11-04T11:36:26;14.00;81.10
19359;DHT22;9815;52.334;20.890;2022-11-04T11:38:59;14.00;79.50
19359;DHT22;9815;52.334;20.890;2022-11-04T11:41:33;14.30;77.80
19359;DHT22;9815;52.334;20.890;2022-11-04T11:44:18;14.60;75.40
19359;DHT22;9815;52.334;20.890;2022-11-04T11:46:51;14.60;76.10
19359;DHT22;9815;52.334;20.890;2022-11-04T11:49:23;14.60;74.10
19359;DHT22;9815;52.334;20.890;2022-11-04T11:51:54;14.40;76.20
19359;DHT22;9815;52.334;20.890;2022-11-04T11:54:27;13.90;76.50
19359;DHT22;9815;52.334;20.890;2022-11-04T11:57:01;13.60;80.00
19359;DHT22;9815;52.334;20.890;2022-11-04T11:59:47;13.20;85.30
19359;DHT22;9815;52.334;20.890;2022-11-04T12:02:44;13.00;86.10
19359;DHT22;9815;52.334;20.890;2022-11-04T12:05:15;12.90;87.90
19359;DHT22;9815;52.334;20.890;2022-11-04T12:08:14;12.80;90.70
19359;DHT22;9815;52.334;20.890;2022-11-04T12:11:13;13.00;89.10
19359;DHT22;9815;52.334;20.890;2022-11-04T12:13:46;13.40;84.90
19359;DHT22;9815;52.334;20.890;2022-11-04T12:16:25;13.80;83.60
19359;DHT22;9815;52.334;20.890;2022-11-04T12:19:06;14.30;78.50
19359;DHT22;9815;52.334;20.890;2022-11-04T12:21:44;14.60;75.10
19359;DHT22;9815;52.334;20.890;2022-11-04T12:24:21;14.80;74.70
19359;DHT22;9815;52.334;20.890;2022-11-04T12:27:02;14.60;71.60
19359;DHT22;9815;52.334;20.890;2022-11-04T12:29:44;14.60;74.30
19359;DHT22;9815;52.334;20.890;2022-11-04T12:32:25;14.60;74.20
19359;DHT22;9815;52.334;20.890;2022-11-04T12:35:04;14.60;74.00
19359;DHT22;9815;52.334;20.890;2022-11-04T12:37:45;14.50;74.30
19359;DHT22;9815;52.334;20.890;2022-11-04T12:40:20;14.40;76.20
19359;DHT22;9815;52.334;20.890;2022-11-04T12:43:02;14.30;74.20
19359;DHT22;9815;52.334;20.890;2022-11-04T12:45:39;14.10;74.20
19359;DHT22;9815;52.334;20.890;2022-11-04T12:48:22;13.80;75.70
19359;DHT22;9815;52.334;20.890;2022-11-04T12:51:00;13.60;78.60
19359;DHT22;9815;52.334;20.890;2022-11-04T12:53:57;13.30;79.30
19359;DHT22;9815;52.334;20.890;2022-11-04T12:56:31;13.10;83.20
19359;DHT22;9815;52.334;20.890;2022-11-04T12:59:26;13.00;84.00
19359;DHT22;9815;52.334;20.890;2022-11-04T13:01:59;12.70;83.90
19359;DHT22;9815;52.334;20.890;2022-11-04T13:04:32;12.60;88.00
19359;DHT22;9815;52.334;20.890;2022-11-04T13:07:08;12.50;87.30
19359;DHT22;9815;52.334;20.890;2022-11-04T13:09:41;12.50;87.40
19359;DHT22;9815;52.334;20.890;2022-11-04T13:12:13;12.40;87.80
19359;DHT22;9815;52.334;20.890;2022-11-04T13:14:47;12.40;89.10
19359;DHT22;9815;52.334;20.890;2022-11-04T13:17:21;12.20;90.00
19359;DHT22;9815;52.334;20.890;2022-11-04T13:19:53;12.30;88.50
19359;DHT22;9815;52.334;20.890;2022-11-04T13:22:25;12.20;88.10
19359;DHT22;9815;52.334;20.890;2022-11-04T13:24:57;12.10;90.30
19359;DHT22;9815;52.334;20.890;2022-11-04T13:27:30;12.20;88.30
19359;DHT22;9815;52.334;20.890;2022-11-04T13:30:05;12.10;90.30
19359;DHT22;9815;52.334;20.890;2022-11-04T13:32:39;12.10;89.70
19359;DHT22;9815;52.334;20.890;2022-11-04T13:35:14;12.10;87.60
19359;DHT22;9815;52.334;20.890;2022-11-04T13:37:54;12.10;89.20
19359;DHT22;9815;52.334;20.890;2022-11-04T13:40:26;12.10;88.50
19359;DHT22;9815;52.334;20.890;2022-11-04T13:43:05;12.00;90.60
19359;DHT22;9815;52.334;20.890;2022-11-04T13:45:55;11.90;91.00
19359;DHT22;9815;52.334;20.890;2022-11-04T13:48:25;11.80;91.20
19359;DHT22;9815;52.334;20.890;2022-11-04T13:50:59;11.70;90.90
19359;DHT22;9815;52.334;20.890;2022-11-04T13:53:43;11.70;90.90
19359;DHT22;9815;52.334;20.890;2022-11-04T13:56:29;11.70;91.50
19359;DHT22;9815;52.334;20.890;2022-11-04T13:59:04;11.60;93.80
19359;DHT22;9815;52.334;20.890;2022-11-04T14:01:34;11.60;92.80
19359;DHT22;9815;52.334;20.890;2022-11-04T14:04:23;11.40;94.40
19359;DHT22;9815;52.334;20.890;2022-11-04T14:06:55;11.40;94.20
19359;DHT22;9815;52.334;20.890;2022-11-04T14:09:52;11.30;94.40
19359;DHT22;9815;52.334;20.890;2022-11-04T14:12:38;11.20;94.50
19359;DHT22;9815;52.334;20.890;2022-11-04T14:15:15;11.30;93.40
19359;DHT22;9815;52.334;20.890;2022-11-04T14:18:03;11.30;93.00
19359;DHT22;9815;52.334;20.890;2022-11-04T14:21:05;11.40;93.10
19359;DHT22;9815;52.334;20.890;2022-11-04T14:23:34;11.30;93.40
19359;DHT22;9815;52.334;20.890;2022-11-04T14:26:05;11.30;93.40
19359;DHT22;9815;52.334;20.890;2022-11-04T14:28:34;11.30;93.90
19359;DHT22;9815;52.334;20.890;2022-11-04T14:31:04;11.20;93.90
19359;DHT22;9815;52.334;20.890;2022-11-04T14:33:49;11.20;94.80
19359;DHT22;9815;52.334;20.890;2022-11-04T14:36:31;11.10;94.50
19359;DHT22;9815;52.334;20.890;2022-11-04T14:39:05;11.10;95.50
19359;DHT22;9815;52.334;20.890;2022-11-04T14:41:54;11.10;94.80
19359;DHT22;9815;52.334;20.890;2022-11-04T14:44:31;11.00;95.50
19359;DHT22;9815;52.334;20.890;2022-11-04T14:47:06;11.00;95.30
19359;DHT22;9815;52.334;20.890;2022-11-04T14:49:45;11.00;94.80
19359;DHT22;9815;52.334;20.890;2022-11-04T14:52:20;10.90;94.90
19359;DHT22;9815;52.334;20.890;2022-11-04T14:54:49;11.00;94.70
19359;DHT22;9815;52.334;20.890;2022-11-04T14:57:21;11.00;94.90
19359;DHT22;9815;52.334;20.890;2022-11-04T14:59:49;11.00;94.70
19359;DHT22;9815;52.334;20.890;2022-11-04T15:02:21;11.00;94.40
19359;DHT22;9815;52.334;20.890;2022-11-04T15:04:56;10.90;94.90
19359;DHT22;9815;52.334;20.890;2022-11-04T15:07:31;11.00;94.30
19359;DHT22;9815;52.334;20.890;2022-11-04T15:10:13;10.90;94.60
19359;DHT22;9815;52.334;20.890;2022-11-04T15:12:43;11.00;94.00
19359;DHT22;9815;52.334;20.890;2022-11-04T15:15:35;11.00;94.40
19359;DHT22;9815;52.334;20.890;2022-11-04T15:18:06;11.00;94.10
19359;DHT22;9815;52.334;20.890;2022-11-04T15:20:43;11.00;94.20
19359;DHT22;9815;52.334;20.890;2022-11-04T15:23:15;11.00;94.30
19359;DHT22;9815;52.334;20.890;2022-11-04T15:25:46;11.00;94.80
19359;DHT22;9815;52.334;20.890;2022-11-04T15:28:25;11.00;94.60
19359;DHT22;9815;52.334;20.890;2022-11-04T15:31:00;11.00;94.60
19359;DHT22;9815;52.334;20.890;2022-11-04T15:33:30;10.90;95.20
19359;DHT22;9815;52.334;20.890;2022-11-04T15:36:01;10.90;96.10
19359;DHT22;9815;52.334;20.890;2022-11-04T15:38:29;10.80;96.30
19359;DHT22;9815;52.334;20.890;2022-11-04T15:40:58;10.80;96.10
19359;DHT22;9815;52.334;20.890;2022-11-04T15:43:48;10.90;96.50
19359;DHT22;9815;52.334;20.890;2022-11-04T15:46:17;10.90;96.20
19359;DHT22;9815;52.334;20.890;2022-11-04T15:49:03;11.00;96.00
19359;DHT22;9815;52.334;20.890;2022-11-04T15:51:36;10.90;96.70
19359;DHT22;9815;52.334;20.890;2022-11-04T15:54:14;10.90;96.80
19359;DHT22;9815;52.334;20.890;2022-11-04T15:56:47;10.90;97.90
19359;DHT22;9815;52.334;20.890;2022-11-04T15:59:19;10.90;97.30
19359;DHT22;9815;52.334;20.890;2022-11-04T16:01:50;10.90;98.10
19359;DHT22;9815;52.334;20.890;2022-11-04T16:04:21;10.90;98.00
19359;DHT22;9815;52.334;20.890;2022-11-04T16:07:20;10.90;98.50
19359;DHT22;9815;52.334;20.890;2022-11-04T16:09:50;10.90;98.40
19359;DHT22;9815;52.334;20.890;2022-11-04T16:12:27;10.90;98.70
19359;DHT22;9815;52.334;20.890;2022-11-04T16:14:57;10.80;99.40
19359;DHT22;9815;52.334;20.890;2022-11-04T16:17:26;10.80;99.10
19359;DHT22;9815;52.334;20.890;2022-11-04T16:19:56;10.90;98.80
19359;DHT22;9815;52.334;20.890;2022-11-04T16:22:30;10.90;99.00
19359;DHT22;9815;52.334;20.890;2022-11-04T16:25:01;10.90;98.40
19359;DHT22;9815;52.334;20.890;2022-11-04T16:27:32;10.90;98.60